sensor_id;sensor_type;location;lat;lon;timestamp;P1;durP1;ratioP1;P2;durP2;ratioP2
7719;SDS011;3902;49.474;8.616;2023-07-02T00:01:09;5.90;;;2.80;;
7719;SDS011;3902;49.474;8.616;2023-07-02T00:03:34;2.33;;;2.13;;
7719;SDS011;3902;49.474;8.616;2023-07-02T00:06:00;5.40;;;2.60;;
7719;SDS011;3902;49.474;8.616;2023-07-02T00:08:25;3.10;;;2.37;;
7719;SDS011;3902;49.474;8.616;2023-07-02T00:10:51;2.80;;;2.60;;
7719;SDS011;3902;49.474;8.616;2023-07-02T00:13:16;2.30;;;2.10;;
7719;SDS011;3902;49.474;8.616;2023-07-02T00:15:42;5.30;;;2.93;;
7719;SDS011;3902;49.474;8.616;2023-07-02T00:18:07;6.67;;;2.50;;
7719;SDS011;3902;49.474;8.616;2023-07-02T00:20:33;3.40;;;2.40;;
7719;SDS011;3902;49.474;8.616;2023-07-02T00:23:03;3.13;;;2.50;;
7719;SDS011;3902;49.474;8.616;2023-07-02T00:25:29;5.77;;;2.60;;
7719;SDS011;3902;49.474;8.616;2023-07-02T00:27:54;5.90;;;3.00;;
7719;SDS011;3902;49.474;8.616;2023-07-02T00:30:20;3.33;;;2.40;;
7719;SDS011;3902;49.474;8.616;2023-07-02T00:32:45;6.93;;;2.93;;
7719;SDS011;3902;49.474;8.616;2023-07-02T00:35:11;2.53;;;2.33;;
7719;SDS011;3902;49.474;8.616;2023-07-02T00:37:36;6.03;;;3.20;;
7719;SDS011;3902;49.474;8.616;2023-07-02T00:40:02;2.50;;;2.23;;
7719;SDS011;3902;49.474;8.616;2023-07-02T00:42:28;3.63;;;2.50;;
7719;SDS011;3902;49.474;8.616;2023-07-02T00:44:55;2.77;;;2.57;;
7719;SDS011;3902;49.474;8.616;2023-07-02T00:47:22;2.77;;;2.50;;
7719;SDS011;3902;49.474;8.616;2023-07-02T00:49:48;4.00;;;2.70;;
7719;SDS011;3902;49.474;8.616;2023-07-02T00:52:15;2.60;;;2.40;;
7719;SDS011;3902;49.474;8.616;2023-07-02T00:54:41;4.03;;;2.63;;
7719;SDS011;3902;49.474;8.616;2023-07-02T00:57:07;3.40;;;2.23;;
7719;SDS011;3902;49.474;8.616;2023-07-02T00:59:33;4.10;;;2.50;;
7719;SDS011;3902;49.474;8.616;2023-07-02T01:02:03;2.80;;;2.33;;
7719;SDS011;3902;49.474;8.616;2023-07-02T01:04:30;4.13;;;2.30;;
7719;SDS011;3902;49.474;8.616;2023-07-02T01:06:56;3.90;;;2.20;;
7719;SDS011;3902;49.474;8.616;2023-07-02T01:09:25;5.10;;;2.90;;
7719;SDS011;3902;49.474;8.616;2023-07-02T01:11:58;4.13;;;2.27;;
7719;SDS011;3902;49.474;8.616;2023-07-02T01:14:33;3.33;;;2.00;;
7719;SDS011;3902;49.474;8.616;2023-07-02T01:17:04;2.90;;;2.30;;
7719;SDS011;3902;49.474;8.616;2023-07-02T01:19:42;3.87;;;2.47;;
7719;SDS011;3902;49.474;8.616;2023-07-02T01:22:18;4.47;;;2.53;;
7719;SDS011;3902;49.474;8.616;2023-07-02T01:24:44;2.63;;;2.10;;
7719;SDS011;3902;49.474;8.616;2023-07-02T01:27:12;4.00;;;2.63;;
7719;SDS011;3902;49.474;8.616;2023-07-02T01:29:37;3.63;;;2.50;;
7719;SDS011;3902;49.474;8.616;2023-07-02T01:32:04;4.03;;;2.80;;
7719;SDS011;3902;49.474;8.616;2023-07-02T01:34:30;2.80;;;2.60;;
7719;SDS011;3902;49.474;8.616;2023-07-02T01:36:56;3.47;;;2.60;;
7719;SDS011;3902;49.474;8.616;2023-07-02T01:39:21;4.53;;;2.50;;
7719;SDS011;3902;49.474;8.616;2023-07-02T01:41:54;5.70;;;2.73;;
7719;SDS011;3902;49.474;8.616;2023-07-02T01:44:32;3.53;;;2.40;;
7719;SDS011;3902;49.474;8.616;2023-07-02T01:46:57;4.53;;;2.47;;
7719;SDS011;3902;49.474;8.616;2023-07-02T01:49:23;3.50;;;2.70;;
7719;SDS011;3902;49.474;8.616;2023-07-02T01:51:53;3.47;;;2.80;;
7719;SDS011;3902;49.474;8.616;2023-07-02T01:54:19;3.33;;;2.40;;
7719;SDS011;3902;49.474;8.616;2023-07-02T01:56:46;4.50;;;2.90;;
7719;SDS011;3902;49.474;8.616;2023-07-02T01:59:12;4.10;;;3.00;;
7719;SDS011;3902;49.474;8.616;2023-07-02T02:01:38;4.30;;;3.00;;
7719;SDS011;3902;49.474;8.616;2023-07-02T02:04:08;4.60;;;3.33;;
7719;SDS011;3902;49.474;8.616;2023-07-02T02:06:34;4.00;;;3.20;;
7719;SDS011;3902;49.474;8.616;2023-07-02T02:09:00;5.10;;;2.67;;
7719;SDS011;3902;49.474;8.616;2023-07-02T02:11:28;3.27;;;2.50;;
7719;SDS011;3902;49.474;8.616;2023-07-02T02:13:53;3.33;;;2.83;;
7719;SDS011;3902;49.474;8.616;2023-07-02T02:16:19;4.43;;;3.33;;
7719;SDS011;3902;49.474;8.616;2023-07-02T02:18:45;3.70;;;2.60;;
7719;SDS011;3902;49.474;8.616;2023-07-02T02:21:11;2.77;;;2.43;;
7719;SDS011;3902;49.474;8.616;2023-07-02T02:23:37;2.67;;;2.47;;
7719;SDS011;3902;49.474;8.616;2023-07-02T02:26:03;5.90;;;3.03;;
7719;SDS011;3902;49.474;8.616;2023-07-02T02:28:29;3.23;;;2.47;;
7719;SDS011;3902;49.474;8.616;2023-07-02T02:30:54;4.50;;;2.73;;
7719;SDS011;3902;49.474;8.616;2023-07-02T02:33:21;3.37;;;2.60;;
7719;SDS011;3902;49.474;8.616;2023-07-02T02:35:47;2.83;;;2.50;;
7719;SDS011;3902;49.474;8.616;2023-07-02T02:38:13;3.10;;;2.80;;
7719;SDS011;3902;49.474;8.616;2023-07-02T02:40:39;4.03;;;2.70;;
7719;SDS011;3902;49.474;8.616;2023-07-02T02:43:05;3.43;;;2.70;;
7719;SDS011;3902;49.474;8.616;2023-07-02T02:45:30;5.60;;;3.03;;
7719;SDS011;3902;49.474;8.616;2023-07-02T02:47:56;4.90;;;3.43;;
7719;SDS011;3902;49.474;8.616;2023-07-02T02:50:21;6.10;;;3.53;;
7719;SDS011;3902;49.474;8.616;2023-07-02T02:52:47;4.00;;;3.50;;
7719;SDS011;3902;49.474;8.616;2023-07-02T02:55:12;3.57;;;3.27;;
7719;SDS011;3902;49.474;8.616;2023-07-02T02:57:38;6.87;;;3.93;;
7719;SDS011;3902;49.474;8.616;2023-07-02T03:00:04;6.40;;;4.30;;
7719;SDS011;3902;49.474;8.616;2023-07-02T03:02:31;6.47;;;4.53;;
7719;SDS011;3902;49.474;8.616;2023-07-02T03:04:56;6.47;;;4.07;;
7719;SDS011;3902;49.474;8.616;2023-07-02T03:07:27;5.90;;;4.60;;
7719;SDS011;3902;49.474;8.616;2023-07-02T03:09:53;6.70;;;5.10;;
7719;SDS011;3902;49.474;8.616;2023-07-02T03:12:18;8.27;;;5.33;;
7719;SDS011;3902;49.474;8.616;2023-07-02T03:14:44;8.20;;;5.70;;
7719;SDS011;3902;49.474;8.616;2023-07-02T03:17:10;7.17;;;5.07;;
7719;SDS011;3902;49.474;8.616;2023-07-02T03:19:35;9.67;;;5.70;;
7719;SDS011;3902;49.474;8.616;2023-07-02T03:22:01;8.40;;;4.50;;
7719;SDS011;3902;49.474;8.616;2023-07-02T03:24:26;7.00;;;5.30;;
7719;SDS011;3902;49.474;8.616;2023-07-02T03:26:52;7.53;;;5.23;;
7719;SDS011;3902;49.474;8.616;2023-07-02T03:29:18;6.20;;;5.00;;
7719;SDS011;3902;49.474;8.616;2023-07-02T03:31:45;6.50;;;5.00;;
7719;SDS011;3902;49.474;8.616;2023-07-02T03:34:11;6.50;;;4.60;;
7719;SDS011;3902;49.474;8.616;2023-07-02T03:36:37;6.40;;;4.87;;
7719;SDS011;3902;49.474;8.616;2023-07-02T03:39:03;9.10;;;5.23;;
7719;SDS011;3902;49.474;8.616;2023-07-02T03:41:30;9.40;;;5.57;;
7719;SDS011;3902;49.474;8.616;2023-07-02T03:43:56;8.17;;;5.17;;
7719;SDS011;3902;49.474;8.616;2023-07-02T03:46:21;5.90;;;5.00;;
7719;SDS011;3902;49.474;8.616;2023-07-02T03:48:47;9.53;;;5.50;;
7719;SDS011;3902;49.474;8.616;2023-07-02T03:51:12;8.60;;;5.33;;
7719;SDS011;3902;49.474;8.616;2023-07-02T03:53:39;6.77;;;4.70;;
7719;SDS011;3902;49.474;8.616;2023-07-02T03:56:05;5.90;;;4.90;;
7719;SDS011;3902;49.474;8.616;2023-07-02T03:58:31;6.10;;;5.10;;
7719;SDS011;3902;49.474;8.616;2023-07-02T04:00:56;7.40;;;5.03;;
7719;SDS011;3902;49.474;8.616;2023-07-02T04:03:22;6.27;;;5.10;;
7719;SDS011;3902;49.474;8.616;2023-07-02T04:05:48;9.03;;;6.00;;
7719;SDS011;3902;49.474;8.616;2023-07-02T04:08:14;8.63;;;5.23;;
7719;SDS011;3902;49.474;8.616;2023-07-02T04:10:40;8.80;;;5.70;;
7719;SDS011;3902;49.474;8.616;2023-07-02T04:13:06;6.43;;;4.80;;
7719;SDS011;3902;49.474;8.616;2023-07-02T04:15:32;11.20;;;5.90;;
7719;SDS011;3902;49.474;8.616;2023-07-02T04:17:58;8.17;;;5.77;;
7719;SDS011;3902;49.474;8.616;2023-07-02T04:20:24;6.33;;;5.03;;
7719;SDS011;3902;49.474;8.616;2023-07-02T04:22:50;6.43;;;4.97;;
7719;SDS011;3902;49.474;8.616;2023-07-02T04:25:16;5.70;;;5.10;;
7719;SDS011;3902;49.474;8.616;2023-07-02T04:27:42;6.80;;;5.10;;
7719;SDS011;3902;49.474;8.616;2023-07-02T04:30:08;8.10;;;6.53;;
7719;SDS011;3902;49.474;8.616;2023-07-02T04:32:35;6.63;;;5.03;;
7719;SDS011;3902;49.474;8.616;2023-07-02T04:35:01;6.77;;;5.20;;
7719;SDS011;3902;49.474;8.616;2023-07-02T04:37:27;4.97;;;4.47;;
7719;SDS011;3902;49.474;8.616;2023-07-02T04:39:53;7.73;;;4.90;;
7719;SDS011;3902;49.474;8.616;2023-07-02T04:42:19;6.80;;;5.10;;
7719;SDS011;3902;49.474;8.616;2023-07-02T04:44:45;5.73;;;5.10;;
7719;SDS011;3902;49.474;8.616;2023-07-02T04:47:10;7.27;;;5.20;;
7719;SDS011;3902;49.474;8.616;2023-07-02T04:49:37;6.73;;;4.87;;
7719;SDS011;3902;49.474;8.616;2023-07-02T04:52:03;6.93;;;5.10;;
7719;SDS011;3902;49.474;8.616;2023-07-02T04:54:28;8.43;;;5.13;;
7719;SDS011;3902;49.474;8.616;2023-07-02T04:56:54;9.77;;;5.00;;
7719;SDS011;3902;49.474;8.616;2023-07-02T04:59:20;7.70;;;5.80;;
7719;SDS011;3902;49.474;8.616;2023-07-02T05:01:46;6.93;;;5.33;;
7719;SDS011;3902;49.474;8.616;2023-07-02T05:04:12;6.67;;;5.37;;
7719;SDS011;3902;49.474;8.616;2023-07-02T05:06:38;7.17;;;5.50;;
7719;SDS011;3902;49.474;8.616;2023-07-02T05:09:03;8.23;;;5.00;;
7719;SDS011;3902;49.474;8.616;2023-07-02T05:11:29;6.53;;;5.70;;
7719;SDS011;3902;49.474;8.616;2023-07-02T05:13:55;10.03;;;5.90;;
7719;SDS011;3902;49.474;8.616;2023-07-02T05:16:21;9.40;;;5.50;;
7719;SDS011;3902;49.474;8.616;2023-07-02T05:18:46;8.33;;;5.60;;
7719;SDS011;3902;49.474;8.616;2023-07-02T05:21:12;6.90;;;5.60;;
7719;SDS011;3902;49.474;8.616;2023-07-02T05:23:38;6.33;;;5.07;;
7719;SDS011;3902;49.474;8.616;2023-07-02T05:26:03;6.97;;;5.57;;
7719;SDS011;3902;49.474;8.616;2023-07-02T05:28:29;7.87;;;5.50;;
7719;SDS011;3902;49.474;8.616;2023-07-02T05:30:54;8.10;;;5.83;;
7719;SDS011;3902;49.474;8.616;2023-07-02T05:33:20;10.40;;;6.20;;
7719;SDS011;3902;49.474;8.616;2023-07-02T05:35:47;9.40;;;6.03;;
7719;SDS011;3902;49.474;8.616;2023-07-02T05:38:13;9.00;;;6.60;;
7719;SDS011;3902;49.474;8.616;2023-07-02T05:40:38;6.87;;;5.80;;
7719;SDS011;3902;49.474;8.616;2023-07-02T05:43:04;10.17;;;6.90;;
7719;SDS011;3902;49.474;8.616;2023-07-02T05:45:30;7.73;;;5.87;;
7719;SDS011;3902;49.474;8.616;2023-07-02T05:47:55;8.20;;;6.20;;
7719;SDS011;3902;49.474;8.616;2023-07-02T05:50:21;11.50;;;6.83;;
7719;SDS011;3902;49.474;8.616;2023-07-02T05:52:48;9.63;;;6.90;;
7719;SDS011;3902;49.474;8.616;2023-07-02T05:55:14;14.30;;;7.13;;
7719;SDS011;3902;49.474;8.616;2023-07-02T05:57:39;8.80;;;6.97;;
7719;SDS011;3902;49.474;8.616;2023-07-02T06:00:05;9.33;;;6.90;;
7719;SDS011;3902;49.474;8.616;2023-07-02T06:02:31;9.37;;;6.47;;
7719;SDS011;3902;49.474;8.616;2023-07-02T06:04:57;11.70;;;7.43;;
7719;SDS011;3902;49.474;8.616;2023-07-02T06:07:24;6.90;;;5.83;;
7719;SDS011;3902;49.474;8.616;2023-07-02T06:09:49;7.57;;;6.40;;
7719;SDS011;3902;49.474;8.616;2023-07-02T06:12:15;8.13;;;6.53;;
7719;SDS011;3902;49.474;8.616;2023-07-02T06:14:41;11.43;;;6.60;;
7719;SDS011;3902;49.474;8.616;2023-07-02T06:17:06;10.30;;;7.73;;
7719;SDS011;3902;49.474;8.616;2023-07-02T06:19:33;11.57;;;7.27;;
7719;SDS011;3902;49.474;8.616;2023-07-02T06:21:59;9.93;;;7.27;;
7719;SDS011;3902;49.474;8.616;2023-07-02T06:24:24;10.63;;;7.97;;
7719;SDS011;3902;49.474;8.616;2023-07-02T06:26:50;9.43;;;8.23;;
7719;SDS011;3902;49.474;8.616;2023-07-02T06:29:19;10.80;;;7.47;;
7719;SDS011;3902;49.474;8.616;2023-07-02T06:31:44;10.40;;;8.47;;
7719;SDS011;3902;49.474;8.616;2023-07-02T06:34:10;12.67;;;8.70;;
7719;SDS011;3902;49.474;8.616;2023-07-02T06:36:36;11.60;;;8.20;;
7719;SDS011;3902;49.474;8.616;2023-07-02T06:39:01;12.70;;;9.30;;
7719;SDS011;3902;49.474;8.616;2023-07-02T06:41:27;13.50;;;9.60;;
7719;SDS011;3902;49.474;8.616;2023-07-02T06:43:53;11.03;;;8.30;;
7719;SDS011;3902;49.474;8.616;2023-07-02T06:46:19;14.60;;;8.87;;
7719;SDS011;3902;49.474;8.616;2023-07-02T06:48:44;14.13;;;10.40;;
7719;SDS011;3902;49.474;8.616;2023-07-02T06:51:10;14.50;;;10.20;;
7719;SDS011;3902;49.474;8.616;2023-07-02T06:53:39;18.70;;;9.80;;
7719;SDS011;3902;49.474;8.616;2023-07-02T06:56:09;13.40;;;11.07;;
7719;SDS011;3902;49.474;8.616;2023-07-02T06:58:35;11.67;;;9.43;;
7719;SDS011;3902;49.474;8.616;2023-07-02T07:01:01;16.73;;;10.20;;
7719;SDS011;3902;49.474;8.616;2023-07-02T07:03:26;16.83;;;11.60;;
7719;SDS011;3902;49.474;8.616;2023-07-02T07:05:52;15.40;;;11.93;;
7719;SDS011;3902;49.474;8.616;2023-07-02T07:08:18;13.73;;;10.47;;
7719;SDS011;3902;49.474;8.616;2023-07-02T07:10:44;14.40;;;10.20;;
7719;SDS011;3902;49.474;8.616;2023-07-02T07:13:10;15.83;;;11.83;;
7719;SDS011;3902;49.474;8.616;2023-07-02T07:15:36;15.53;;;9.37;;
7719;SDS011;3902;49.474;8.616;2023-07-02T07:18:02;19.60;;;10.90;;
7719;SDS011;3902;49.474;8.616;2023-07-02T07:20:28;15.67;;;9.80;;
7719;SDS011;3902;49.474;8.616;2023-07-02T07:22:55;13.23;;;9.97;;
7719;SDS011;3902;49.474;8.616;2023-07-02T07:25:21;14.23;;;9.90;;
7719;SDS011;3902;49.474;8.616;2023-07-02T07:27:46;13.73;;;10.57;;
7719;SDS011;3902;49.474;8.616;2023-07-02T07:30:12;16.00;;;10.70;;
7719;SDS011;3902;49.474;8.616;2023-07-02T07:32:40;15.73;;;11.13;;
7719;SDS011;3902;49.474;8.616;2023-07-02T07:35:06;18.70;;;12.63;;
7719;SDS011;3902;49.474;8.616;2023-07-02T07:37:32;14.50;;;11.33;;
7719;SDS011;3902;49.474;8.616;2023-07-02T07:39:58;15.70;;;11.30;;
7719;SDS011;3902;49.474;8.616;2023-07-02T07:42:24;19.70;;;12.20;;
7719;SDS011;3902;49.474;8.616;2023-07-02T07:44:49;14.80;;;12.47;;
7719;SDS011;3902;49.474;8.616;2023-07-02T07:47:15;17.60;;;12.60;;
7719;SDS011;3902;49.474;8.616;2023-07-02T07:49:41;18.73;;;13.00;;
7719;SDS011;3902;49.474;8.616;2023-07-02T07:52:07;21.20;;;13.57;;
7719;SDS011;3902;49.474;8.616;2023-07-02T07:54:33;19.03;;;14.27;;
7719;SDS011;3902;49.474;8.616;2023-07-02T07:57:00;21.83;;;14.80;;
7719;SDS011;3902;49.474;8.616;2023-07-02T07:59:26;20.10;;;14.40;;
7719;SDS011;3902;49.474;8.616;2023-07-02T08:01:52;25.30;;;15.13;;
7719;SDS011;3902;49.474;8.616;2023-07-02T08:04:17;24.30;;;14.10;;
7719;SDS011;3902;49.474;8.616;2023-07-02T08:06:44;20.00;;;14.97;;
7719;SDS011;3902;49.474;8.616;2023-07-02T08:09:10;23.93;;;14.67;;
7719;SDS011;3902;49.474;8.616;2023-07-02T08:11:36;23.33;;;15.00;;
7719;SDS011;3902;49.474;8.616;2023-07-02T08:14:01;23.70;;;15.83;;
7719;SDS011;3902;49.474;8.616;2023-07-02T08:16:27;20.40;;;14.77;;
7719;SDS011;3902;49.474;8.616;2023-07-02T08:18:53;18.73;;;13.87;;
7719;SDS011;3902;49.474;8.616;2023-07-02T08:21:19;18.37;;;14.00;;
7719;SDS011;3902;49.474;8.616;2023-07-02T08:23:44;20.10;;;14.70;;
7719;SDS011;3902;49.474;8.616;2023-07-02T08:26:10;18.40;;;14.50;;
7719;SDS011;3902;49.474;8.616;2023-07-02T08:28:36;18.67;;;13.73;;
7719;SDS011;3902;49.474;8.616;2023-07-02T08:31:03;21.10;;;14.80;;
7719;SDS011;3902;49.474;8.616;2023-07-02T08:33:29;20.30;;;14.33;;
7719;SDS011;3902;49.474;8.616;2023-07-02T08:35:55;24.77;;;14.87;;
7719;SDS011;3902;49.474;8.616;2023-07-02T08:38:22;21.20;;;14.33;;
7719;SDS011;3902;49.474;8.616;2023-07-02T08:40:48;19.50;;;13.43;;
7719;SDS011;3902;49.474;8.616;2023-07-02T08:43:14;19.87;;;14.73;;
7719;SDS011;3902;49.474;8.616;2023-07-02T08:45:40;26.13;;;16.37;;
7719;SDS011;3902;49.474;8.616;2023-07-02T08:48:07;20.20;;;14.93;;
7719;SDS011;3902;49.474;8.616;2023-07-02T08:50:33;19.87;;;14.20;;
7719;SDS011;3902;49.474;8.616;2023-07-02T08:52:59;23.50;;;14.87;;
7719;SDS011;3902;49.474;8.616;2023-07-02T08:55:24;20.00;;;15.13;;
7719;SDS011;3902;49.474;8.616;2023-07-02T08:57:51;17.97;;;13.57;;
7719;SDS011;3902;49.474;8.616;2023-07-02T09:00:18;20.13;;;13.80;;
7719;SDS011;3902;49.474;8.616;2023-07-02T09:02:44;17.73;;;13.83;;
7719;SDS011;3902;49.474;8.616;2023-07-02T09:05:11;20.77;;;14.27;;
7719;SDS011;3902;49.474;8.616;2023-07-02T09:07:47;17.90;;;11.60;;
7719;SDS011;3902;49.474;8.616;2023-07-02T09:10:29;17.03;;;13.23;;
7719;SDS011;3902;49.474;8.616;2023-07-02T09:13:05;20.23;;;13.63;;
7719;SDS011;3902;49.474;8.616;2023-07-02T09:15:50;21.80;;;14.40;;
7719;SDS011;3902;49.474;8.616;2023-07-02T09:18:16;19.73;;;13.43;;
7719;SDS011;3902;49.474;8.616;2023-07-02T09:20:43;19.03;;;13.60;;
7719;SDS011;3902;49.474;8.616;2023-07-02T09:23:09;18.80;;;14.07;;
7719;SDS011;3902;49.474;8.616;2023-07-02T09:25:36;20.17;;;13.57;;
7719;SDS011;3902;49.474;8.616;2023-07-02T09:28:13;18.53;;;12.63;;
7719;SDS011;3902;49.474;8.616;2023-07-02T09:30:56;21.80;;;13.90;;
7719;SDS011;3902;49.474;8.616;2023-07-02T09:33:27;24.10;;;14.70;;
7719;SDS011;3902;49.474;8.616;2023-07-02T09:35:53;22.87;;;14.50;;
7719;SDS011;3902;49.474;8.616;2023-07-02T09:38:19;18.53;;;14.10;;
7719;SDS011;3902;49.474;8.616;2023-07-02T09:40:46;18.00;;;14.23;;
7719;SDS011;3902;49.474;8.616;2023-07-02T09:43:14;19.80;;;14.13;;
7719;SDS011;3902;49.474;8.616;2023-07-02T09:45:45;19.50;;;14.87;;
7719;SDS011;3902;49.474;8.616;2023-07-02T09:48:12;19.97;;;13.70;;
7719;SDS011;3902;49.474;8.616;2023-07-02T09:50:40;17.20;;;13.70;;
7719;SDS011;3902;49.474;8.616;2023-07-02T09:53:07;18.90;;;13.37;;
7719;SDS011;3902;49.474;8.616;2023-07-02T09:55:33;19.57;;;14.13;;
7719;SDS011;3902;49.474;8.616;2023-07-02T09:57:58;21.00;;;13.77;;
7719;SDS011;3902;49.474;8.616;2023-07-02T10:00:24;19.70;;;14.57;;
7719;SDS011;3902;49.474;8.616;2023-07-02T10:02:49;18.03;;;13.33;;
7719;SDS011;3902;49.474;8.616;2023-07-02T10:05:31;19.27;;;15.40;;
7719;SDS011;3902;49.474;8.616;2023-07-02T10:07:58;22.50;;;14.90;;
7719;SDS011;3902;49.474;8.616;2023-07-02T10:10:36;24.07;;;15.40;;
7719;SDS011;3902;49.474;8.616;2023-07-02T10:13:01;23.60;;;14.57;;
7719;SDS011;3902;49.474;8.616;2023-07-02T10:15:27;20.77;;;15.57;;
7719;SDS011;3902;49.474;8.616;2023-07-02T10:17:59;20.53;;;14.20;;
7719;SDS011;3902;49.474;8.616;2023-07-02T10:20:34;20.70;;;15.37;;
7719;SDS011;3902;49.474;8.616;2023-07-02T10:23:01;23.30;;;16.00;;
7719;SDS011;3902;49.474;8.616;2023-07-02T10:25:29;20.47;;;15.10;;
7719;SDS011;3902;49.474;8.616;2023-07-02T10:27:59;20.63;;;14.50;;
7719;SDS011;3902;49.474;8.616;2023-07-02T10:33:12;22.97;;;15.87;;
7719;SDS011;3902;49.474;8.616;2023-07-02T10:35:39;21.10;;;14.37;;
7719;SDS011;3902;49.474;8.616;2023-07-02T10:38:22;22.30;;;15.00;;
7719;SDS011;3902;49.474;8.616;2023-07-02T10:40:56;19.90;;;14.83;;
7719;SDS011;3902;49.474;8.616;2023-07-02T10:43:29;21.50;;;15.57;;
7719;SDS011;3902;49.474;8.616;2023-07-02T10:45:55;25.17;;;15.80;;
7719;SDS011;3902;49.474;8.616;2023-07-02T10:48:21;24.17;;;16.63;;
7719;SDS011;3902;49.474;8.616;2023-07-02T10:50:47;18.87;;;15.53;;
7719;SDS011;3902;49.474;8.616;2023-07-02T10:53:16;20.70;;;15.53;;
7719;SDS011;3902;49.474;8.616;2023-07-02T10:55:42;23.30;;;15.87;;
7719;SDS011;3902;49.474;8.616;2023-07-02T10:58:09;23.47;;;16.57;;
7719;SDS011;3902;49.474;8.616;2023-07-02T11:00:45;21.57;;;15.63;;
7719;SDS011;3902;49.474;8.616;2023-07-02T11:03:24;22.03;;;16.30;;
7719;SDS011;3902;49.474;8.616;2023-07-02T11:05:51;25.20;;;17.00;;
7719;SDS011;3902;49.474;8.616;2023-07-02T11:08:18;20.90;;;15.80;;
7719;SDS011;3902;49.474;8.616;2023-07-02T11:10:46;23.50;;;15.30;;
7719;SDS011;3902;49.474;8.616;2023-07-02T11:15:37;22.37;;;15.23;;
7719;SDS011;3902;49.474;8.616;2023-07-02T11:18:10;22.40;;;16.00;;
7719;SDS011;3902;49.474;8.616;2023-07-02T11:20:36;22.40;;;15.50;;
7719;SDS011;3902;49.474;8.616;2023-07-02T11:23:03;18.70;;;14.80;;
7719;SDS011;3902;49.474;8.616;2023-07-02T11:25:28;19.23;;;14.13;;
7719;SDS011;3902;49.474;8.616;2023-07-02T11:28:03;19.97;;;15.50;;
7719;SDS011;3902;49.474;8.616;2023-07-02T11:30:29;22.90;;;15.57;;
7719;SDS011;3902;49.474;8.616;2023-07-02T11:32:55;20.03;;;14.70;;
7719;SDS011;3902;49.474;8.616;2023-07-02T11:35:21;19.80;;;15.83;;
7719;SDS011;3902;49.474;8.616;2023-07-02T11:37:48;23.37;;;15.43;;
7719;SDS011;3902;49.474;8.616;2023-07-02T11:40:19;18.63;;;14.77;;
7719;SDS011;3902;49.474;8.616;2023-07-02T11:42:45;21.97;;;16.30;;
7719;SDS011;3902;49.474;8.616;2023-07-02T11:45:10;22.43;;;15.70;;
7719;SDS011;3902;49.474;8.616;2023-07-02T11:47:37;21.67;;;16.23;;
7719;SDS011;3902;49.474;8.616;2023-07-02T11:50:03;25.50;;;15.90;;
7719;SDS011;3902;49.474;8.616;2023-07-02T11:52:29;23.43;;;16.03;;
7719;SDS011;3902;49.474;8.616;2023-07-02T11:54:54;22.50;;;14.87;;
7719;SDS011;3902;49.474;8.616;2023-07-02T11:57:20;20.70;;;14.23;;
7719;SDS011;3902;49.474;8.616;2023-07-02T11:59:47;18.87;;;14.03;;
7719;SDS011;3902;49.474;8.616;2023-07-02T12:02:14;20.37;;;14.93;;
7719;SDS011;3902;49.474;8.616;2023-07-02T12:04:40;19.67;;;14.80;;
7719;SDS011;3902;49.474;8.616;2023-07-02T12:07:05;22.20;;;15.33;;
7719;SDS011;3902;49.474;8.616;2023-07-02T12:09:31;21.03;;;14.30;;
7719;SDS011;3902;49.474;8.616;2023-07-02T12:11:56;18.93;;;13.90;;
7719;SDS011;3902;49.474;8.616;2023-07-02T12:14:22;22.07;;;14.40;;
7719;SDS011;3902;49.474;8.616;2023-07-02T12:16:47;18.60;;;14.30;;
7719;SDS011;3902;49.474;8.616;2023-07-02T12:19:13;19.37;;;15.00;;
7719;SDS011;3902;49.474;8.616;2023-07-02T12:21:38;21.00;;;14.87;;
7719;SDS011;3902;49.474;8.616;2023-07-02T12:24:04;18.87;;;13.30;;
7719;SDS011;3902;49.474;8.616;2023-07-02T12:26:34;20.77;;;13.83;;
7719;SDS011;3902;49.474;8.616;2023-07-02T12:29:00;19.37;;;14.17;;
7719;SDS011;3902;49.474;8.616;2023-07-02T12:31:25;20.60;;;13.93;;
7719;SDS011;3902;49.474;8.616;2023-07-02T12:33:51;21.47;;;14.60;;
7719;SDS011;3902;49.474;8.616;2023-07-02T12:36:16;23.17;;;16.00;;
7719;SDS011;3902;49.474;8.616;2023-07-02T12:38:42;18.80;;;14.63;;
7719;SDS011;3902;49.474;8.616;2023-07-02T12:41:07;20.30;;;14.40;;
7719;SDS011;3902;49.474;8.616;2023-07-02T12:43:33;21.90;;;14.70;;
7719;SDS011;3902;49.474;8.616;2023-07-02T12:45:58;21.07;;;13.33;;
7719;SDS011;3902;49.474;8.616;2023-07-02T12:48:24;19.30;;;14.43;;
7719;SDS011;3902;49.474;8.616;2023-07-02T12:50:53;19.47;;;14.40;;
7719;SDS011;3902;49.474;8.616;2023-07-02T12:53:24;19.43;;;15.53;;
7719;SDS011;3902;49.474;8.616;2023-07-02T12:55:50;19.63;;;14.67;;
7719;SDS011;3902;49.474;8.616;2023-07-02T12:58:15;22.90;;;14.90;;
7719;SDS011;3902;49.474;8.616;2023-07-02T13:00:41;19.10;;;14.50;;
7719;SDS011;3902;49.474;8.616;2023-07-02T13:03:09;21.00;;;15.33;;
7719;SDS011;3902;49.474;8.616;2023-07-02T13:05:36;21.00;;;14.67;;
7719;SDS011;3902;49.474;8.616;2023-07-02T13:08:01;21.07;;;15.63;;
7719;SDS011;3902;49.474;8.616;2023-07-02T13:10:28;19.07;;;14.90;;
7719;SDS011;3902;49.474;8.616;2023-07-02T13:12:54;17.70;;;14.30;;
7719;SDS011;3902;49.474;8.616;2023-07-02T13:15:20;19.27;;;14.77;;
7719;SDS011;3902;49.474;8.616;2023-07-02T13:17:45;20.90;;;14.77;;
7719;SDS011;3902;49.474;8.616;2023-07-02T13:20:11;18.93;;;14.17;;
7719;SDS011;3902;49.474;8.616;2023-07-02T13:22:37;18.80;;;14.50;;
7719;SDS011;3902;49.474;8.616;2023-07-02T13:25:03;20.70;;;15.40;;
7719;SDS011;3902;49.474;8.616;2023-07-02T13:27:29;19.27;;;14.63;;
7719;SDS011;3902;49.474;8.616;2023-07-02T13:29:54;17.70;;;13.87;;
7719;SDS011;3902;49.474;8.616;2023-07-02T13:32:20;23.27;;;14.83;;
7719;SDS011;3902;49.474;8.616;2023-07-02T13:34:45;18.70;;;14.23;;
7719;SDS011;3902;49.474;8.616;2023-07-02T13:37:10;21.83;;;16.33;;
7719;SDS011;3902;49.474;8.616;2023-07-02T13:39:36;22.00;;;16.00;;
7719;SDS011;3902;49.474;8.616;2023-07-02T13:42:02;18.70;;;14.30;;
7719;SDS011;3902;49.474;8.616;2023-07-02T13:44:27;21.87;;;14.80;;
7719;SDS011;3902;49.474;8.616;2023-07-02T13:46:53;20.97;;;15.17;;
7719;SDS011;3902;49.474;8.616;2023-07-02T13:49:18;20.00;;;15.77;;
7719;SDS011;3902;49.474;8.616;2023-07-02T13:51:46;23.60;;;15.77;;
7719;SDS011;3902;49.474;8.616;2023-07-02T13:54:12;24.53;;;14.80;;
7719;SDS011;3902;49.474;8.616;2023-07-02T13:56:39;20.80;;;14.93;;
7719;SDS011;3902;49.474;8.616;2023-07-02T13:59:05;21.63;;;14.70;;
7719;SDS011;3902;49.474;8.616;2023-07-02T14:01:30;18.80;;;14.20;;
7719;SDS011;3902;49.474;8.616;2023-07-02T14:03:56;20.13;;;14.20;;
7719;SDS011;3902;49.474;8.616;2023-07-02T14:06:21;19.30;;;14.33;;
7719;SDS011;3902;49.474;8.616;2023-07-02T14:08:47;19.60;;;14.87;;
7719;SDS011;3902;49.474;8.616;2023-07-02T14:11:13;20.77;;;14.50;;
7719;SDS011;3902;49.474;8.616;2023-07-02T14:13:38;22.57;;;16.10;;
7719;SDS011;3902;49.474;8.616;2023-07-02T14:16:04;24.13;;;16.20;;
7719;SDS011;3902;49.474;8.616;2023-07-02T14:18:29;17.77;;;14.33;;
7719;SDS011;3902;49.474;8.616;2023-07-02T14:20:55;18.63;;;14.43;;
7719;SDS011;3902;49.474;8.616;2023-07-02T14:23:20;21.70;;;14.80;;
7719;SDS011;3902;49.474;8.616;2023-07-02T14:25:46;23.73;;;15.33;;
7719;SDS011;3902;49.474;8.616;2023-07-02T14:28:11;25.80;;;16.03;;
7719;SDS011;3902;49.474;8.616;2023-07-02T14:30:37;20.83;;;14.67;;
7719;SDS011;3902;49.474;8.616;2023-07-02T14:33:03;19.90;;;14.57;;
7719;SDS011;3902;49.474;8.616;2023-07-02T14:35:29;19.40;;;14.40;;
7719;SDS011;3902;49.474;8.616;2023-07-02T14:37:56;20.77;;;15.50;;
7719;SDS011;3902;49.474;8.616;2023-07-02T14:40:22;17.47;;;14.40;;
7719;SDS011;3902;49.474;8.616;2023-07-02T14:42:48;20.47;;;15.80;;
7719;SDS011;3902;49.474;8.616;2023-07-02T14:45:14;19.90;;;14.60;;
7719;SDS011;3902;49.474;8.616;2023-07-02T14:47:39;22.27;;;14.60;;
7719;SDS011;3902;49.474;8.616;2023-07-02T14:50:05;21.53;;;15.17;;
7719;SDS011;3902;49.474;8.616;2023-07-02T14:52:31;20.47;;;14.77;;
7719;SDS011;3902;49.474;8.616;2023-07-02T14:54:56;20.90;;;14.60;;
7719;SDS011;3902;49.474;8.616;2023-07-02T14:57:24;23.40;;;16.20;;
7719;SDS011;3902;49.474;8.616;2023-07-02T14:59:50;21.77;;;14.70;;
7719;SDS011;3902;49.474;8.616;2023-07-02T15:02:16;19.23;;;15.10;;